Time,TemperatureF,DewpointF,PressureIn,WindDirection,WindDirectionDegrees,WindSpeedMPH,WindSpeedGustMPH,Humidity,HourlyPrecipIn,Conditions,Clouds,dailyrainin,SoftwareType,DateUTC
2013-03-16 00:04:00,37.0,31.4,29.83,NNE,22,5.8,5.8,80,0.00,OVC,OVC,0.00,WeatherDisplay:10.37,2013-03-16 05:04:00,
2013-03-16 00:10:00,36.9,31.3,29.83,NW,305,4.6,4.6,80,0.00,OVC,OVC,0.00,WeatherDisplay:10.37,2013-03-16 05:10:00,
2013-03-16 00:15:00,36.9,31.3,29.83,NNW,348,6.9,6.9,80,0.00,OVC,OVC,0.00,WeatherDisplay:10.37,2013-03-16 05:15:00,
2013-03-16 00:20:00,37.0,31.4,29.83,NNW,342,4.6,4.6,80,0.00,OVC,OVC,0.00,WeatherDisplay:10.37,2013-03-16 05:20:00,
2013-03-16 00:25:00,37.0,31.4,29.83,NNW,340,3.5,0.0,80,0.00,OVC,OVC,0.00,WeatherDisplay:10.37,2013-03-16 05:25:00,
2013-03-16 00:30:00,37.0,31.4,29.82,NE,52,3.5,3.5,80,0.00,OVC,OVC,0.00,WeatherDisplay:10.37,2013-03-16 05:30:00,
2013-03-16 00:35:00,37.0,31.4,29.82,North,11,3.5,3.5,80,0.00,OVC,OVC,0.00,WeatherDisplay:10.37,2013-03-16 05:35:00,
2013-03-16 00:40:00,37.0,31.4,29.83,North,9,0.0,0.0,80,0.00,OVC,OVC,0.00,WeatherDisplay:10.37,2013-03-16 05:40:00,
2013-03-16 00:46:00,37.0,31.4,29.84,North,349,4.6,4.6,80,0.00,OVC,OVC,0.00,WeatherDisplay:10.37,2013-03-16 05:46:00,
2013-03-16 00:52:00,37.0,31.4,29.84,NW,307,3.5,3.5,80,0.00,OVC,OVC,0.00,WeatherDisplay:10.37,2013-03-16 05:52:00,
2013-03-16 00:57:00,37.0,31.4,29.84,North,5,0.0,0.0,80,0.00,OVC,OVC,0.00,WeatherDisplay:10.37,2013-03-16 05:57:00,
2013-03-16 01:02:00,37.1,31.5,29.84,NW,316,3.0,3.0,80,0.00,OVC,OVC,0.00,WeatherDisplay:10.37,2013-03-16 06:02:00,
2013-03-16 01:07:00,37.0,31.4,29.84,WNW,302,4.0,4.0,80,0.00,OVC,OVC,0.00,WeatherDisplay:10.37,2013-03-16 06:07:00,
2013-03-16 01:12:00,36.8,31.2,29.84,NW,313,3.5,3.5,80,0.00,OVC,OVC,0.00,WeatherDisplay:10.37,2013-03-16 06:12:00,
2013-03-16 01:17:00,36.6,31.0,29.85,NNW,344,5.0,5.0,80,0.00,OVC,OVC,0.00,WeatherDisplay:10.37,2013-03-16 06:17:00,
2013-03-16 01:22:00,36.5,30.9,29.85,NW,325,3.5,0.0,80,0.00,OVC,OVC,0.00,WeatherDisplay:10.37,2013-03-16 06:22:00,
2013-03-16 01:27:00,36.4,30.8,29.85,NW,313,3.5,3.5,80,0.00,OVC,OVC,0.00,WeatherDisplay:10.37,2013-03-16 06:27:00,
2013-03-16 01:33:00,36.4,30.8,29.85,NW,316,4.6,4.6,80,0.00,OVC,OVC,0.00,WeatherDisplay:10.37,2013-03-16 06:33:00,
2013-03-16 01:38:00,36.4,30.8,29.86,WNW,292,4.6,4.6,80,0.00,OVC,OVC,0.00,WeatherDisplay:10.37,2013-03-16 06:38:00,
2013-03-16 01:43:00,36.4,30.8,29.85,NW,314,3.5,3.5,80,0.00,OVC,OVC,0.00,WeatherDisplay:10.37,2013-03-16 06:43:00,
2013-03-16 01:48:00,36.3,30.7,29.86,NW,306,4.6,4.6,80,0.00,OVC,OVC,0.00,WeatherDisplay:10.37,2013-03-16 06:48:00,
2013-03-16 01:53:00,36.3,30.7,29.86,West,272,3.5,3.5,80,0.00,OVC,OVC,0.00,WeatherDisplay:10.37,2013-03-16 06:53:00,
2013-03-16 01:59:00,36.2,30.6,29.85,WNW,300,4.6,4.6,80,0.00,OVC,OVC,0.00,WeatherDisplay:10.37,2013-03-16 06:59:00,
2013-03-16 02:04:00,36.2,30.6,29.86,NNW,347,3.5,3.5,80,0.00,OVC,OVC,0.00,WeatherDisplay:10.37,2013-03-16 07:04:00,
2013-03-16 02:09:00,36.2,30.6,29.85,North,355,3.5,3.5,80,0.00,OVC,OVC,0.00,WeatherDisplay:10.37,2013-03-16 07:09:00,
2013-03-16 02:14:00,36.2,30.6,29.85,WNW,302,4.6,4.6,80,0.00,OVC,OVC,0.00,WeatherDisplay:10.37,2013-03-16 07:14:00,
2013-03-16 02:19:00,36.2,30.6,29.85,NW,311,10.4,10.4,80,0.00,OVC,OVC,0.00,WeatherDisplay:10.37,2013-03-16 07:19:00,
2013-03-16 02:25:00,36.1,30.5,29.86,NW,306,3.5,3.5,80,0.00,OVC,OVC,0.00,WeatherDisplay:10.37,2013-03-16 07:25:00,
2013-03-16 02:30:00,36.0,30.7,29.85,West,267,6.9,6.9,81,0.00,OVC,OVC,0.00,WeatherDisplay:10.37,2013-03-16 07:30:00,
2013-03-16 02:35:00,36.0,30.4,29.86,WNW,302,4.6,4.6,80,0.00,OVC,OVC,0.00,WeatherDisplay:10.37,2013-03-16 07:35:00,
2013-03-16 02:40:00,36.0,30.4,29.86,North,355,4.6,4.6,80,0.00,OVC,OVC,0.00,WeatherDisplay:10.37,2013-03-16 07:40:00,
2013-03-16 02:46:00,36.0,30.4,29.86,NW,313,4.6,4.6,80,0.00,OVC,OVC,0.00,WeatherDisplay:10.37,2013-03-16 07:46:00,
2013-03-16 02:51:00,36.0,30.4,29.87,NW,315,6.9,6.9,80,0.00,OVC,OVC,0.00,WeatherDisplay:10.37,2013-03-16 07:51:00,
2013-03-16 02:56:00,36.0,30.4,29.87,NNW,331,4.6,4.6,80,0.00,OVC,OVC,0.00,WeatherDisplay:10.37,2013-03-16 07:56:00,
2013-03-16 03:01:00,35.9,30.3,29.86,NNW,329,5.8,5.8,80,0.00,OVC,OVC,0.00,WeatherDisplay:10.37,2013-03-16 08:01:00,
2013-03-16 03:06:00,35.8,30.2,29.86,WNW,298,5.8,5.8,80,0.00,OVC,OVC,0.00,WeatherDisplay:10.37,2013-03-16 08:06:00,
2013-03-16 03:11:00,35.7,30.4,29.87,NNE,13,6.9,6.9,81,0.00,OVC,OVC,0.00,WeatherDisplay:10.37,2013-03-16 08:11:00,
2013-03-16 03:17:00,35.6,30.3,29.87,NW,324,5.8,5.8,81,0.00,OVC,OVC,0.00,WeatherDisplay:10.37,2013-03-16 08:17:00,
2013-03-16 03:22:00,35.5,30.2,29.87,NW,309,10.4,10.4,81,0.00,OVC,OVC,0.00,WeatherDisplay:10.37,2013-03-16 08:22:00,
2013-03-16 03:27:00,35.4,30.1,29.87,NNW,331,6.9,6.9,81,0.00,OVC,OVC,0.00,WeatherDisplay:10.37,2013-03-16 08:27:00,
2013-03-16 03:32:00,35.4,30.1,29.87,NW,306,6.9,6.9,81,0.00,OVC,OVC,0.00,WeatherDisplay:10.37,2013-03-16 08:32:00,
2013-03-16 03:37:00,35.4,30.1,29.88,NW,315,4.6,4.6,81,0.00,OVC,OVC,0.00,WeatherDisplay:10.37,2013-03-16 08:37:00,
2013-03-16 03:42:00,35.4,30.1,29.88,NNW,346,5.8,5.8,81,0.00,OVC,OVC,0.00,WeatherDisplay:10.37,2013-03-16 08:42:00,
2013-03-16 03:48:00,35.4,30.1,29.88,North,5,6.9,6.9,81,0.00,OVC,OVC,0.00,WeatherDisplay:10.37,2013-03-16 08:48:00,
2013-03-16 03:53:00,35.4,30.1,29.88,NW,315,7.0,7.0,81,0.00,OVC,OVC,0.00,WeatherDisplay:10.37,2013-03-16 08:53:00,
2013-03-16 03:58:00,35.4,30.1,29.89,WNW,282,5.8,5.8,81,0.00,OVC,OVC,0.00,WeatherDisplay:10.37,2013-03-16 08:58:00,
2013-03-16 04:03:00,35.5,30.2,29.89,NW,306,5.8,5.8,81,0.00,OVC,OVC,0.00,WeatherDisplay:10.37,2013-03-16 09:03:00,
2013-03-16 04:08:00,35.5,30.2,29.89,NW,322,5.8,5.8,81,0.00,OVC,OVC,0.00,WeatherDisplay:10.37,2013-03-16 09:08:00,
2013-03-16 04:13:00,35.5,30.2,29.90,NNE,17,10.4,10.4,81,0.00,OVC,OVC,0.00,WeatherDisplay:10.37,2013-03-16 09:13:00,
2013-03-16 04:18:00,35.5,30.2,29.90,NW,326,6.9,6.9,81,0.00,OVC,OVC,0.00,WeatherDisplay:10.37,2013-03-16 09:18:00,
2013-03-16 04:23:00,35.6,30.0,29.90,NNW,334,7.0,7.0,80,0.00,OVC,OVC,0.00,WeatherDisplay:10.37,2013-03-16 09:23:00,
2013-03-16 04:29:00,35.6,30.0,29.90,NNW,340,10.4,10.4,80,0.00,OVC,OVC,0.00,WeatherDisplay:10.37,2013-03-16 09:29:00,
2013-03-16 04:34:00,35.5,29.9,29.90,NNW,327,9.2,9.2,80,0.00,OVC,OVC,0.00,WeatherDisplay:10.37,2013-03-16 09:34:00,
2013-03-16 04:39:00,35.5,29.9,29.90,NW,324,9.2,9.2,80,0.00,OVC,OVC,0.00,WeatherDisplay:10.37,2013-03-16 09:39:00,
2013-03-16 04:44:00,35.4,29.8,29.90,North,5,16.1,16.1,80,0.00,OVC,OVC,0.00,WeatherDisplay:10.37,2013-03-16 09:44:00,
2013-03-16 04:50:00,35.4,29.8,29.91,NNE,16,10.4,10.4,80,0.00,OVC,OVC,0.00,WeatherDisplay:10.37,2013-03-16 09:50:00,
2013-03-16 04:55:00,35.4,29.8,29.91,WNW,301,15.0,15.0,80,0.00,OVC,OVC,0.00,WeatherDisplay:10.37,2013-03-16 09:55:00,
2013-03-16 05:00:00,35.3,29.7,29.92,NW,324,9.2,9.2,80,0.00,OVC,OVC,0.00,WeatherDisplay:10.37,2013-03-16 10:00:00,
2013-03-16 05:05:00,35.3,29.7,29.92,WNW,285,4.0,4.0,80,0.00,OVC,OVC,0.00,WeatherDisplay:10.37,2013-03-16 10:05:00,
2013-03-16 05:11:00,35.2,29.6,29.92,NW,325,9.2,9.2,80,0.00,OVC,OVC,0.00,WeatherDisplay:10.37,2013-03-16 10:11:00,
2013-03-16 05:16:00,35.2,30.0,29.92,WNW,289,11.5,11.5,81,0.00,OVC,OVC,0.00,WeatherDisplay:10.37,2013-03-16 10:16:00,
2013-03-16 05:21:00,35.1,29.9,29.93,NNW,336,11.5,11.5,81,0.00,OVC,OVC,0.00,WeatherDisplay:10.37,2013-03-16 10:21:00,
2013-03-16 05:26:00,35.2,29.6,29.93,WNW,300,11.5,11.5,80,0.00,OVC,OVC,0.00,WeatherDisplay:10.37,2013-03-16 10:26:00,
2013-03-16 05:32:00,35.3,29.7,29.94,NW,310,11.5,11.5,80,0.00,OVC,OVC,0.00,WeatherDisplay:10.37,2013-03-16 10:32:00,
2013-03-16 05:37:00,35.3,29.7,29.94,WNW,300,12.7,12.7,80,0.00,OVC,OVC,0.00,WeatherDisplay:10.37,2013-03-16 10:37:00,
2013-03-16 05:42:00,35.3,29.7,29.95,NW,315,11.5,11.5,80,0.00,OVC,OVC,0.00,WeatherDisplay:10.37,2013-03-16 10:42:00,
2013-03-16 05:47:00,35.3,29.4,29.96,NNW,344,12.0,12.0,79,0.00,OVC,OVC,0.00,WeatherDisplay:10.37,2013-03-16 10:47:00,
2013-03-16 05:52:00,35.3,29.4,29.96,WNW,303,5.8,5.8,79,0.00,OVC,OVC,0.00,WeatherDisplay:10.37,2013-03-16 10:52:00,
2013-03-16 05:57:00,35.2,29.0,29.96,West,266,10.4,10.4,78,0.00,OVC,OVC,0.00,WeatherDisplay:10.37,2013-03-16 10:57:00,
2013-03-16 06:02:00,35.2,29.0,29.96,NNW,327,16.1,16.1,78,0.00,OVC,OVC,0.00,WeatherDisplay:10.37,2013-03-16 11:02:00,
2013-03-16 06:07:00,35.2,29.0,29.96,West,273,11.5,11.5,78,0.00,OVC,OVC,0.00,WeatherDisplay:10.37,2013-03-16 11:07:00,
2013-03-16 06:12:00,35.2,29.0,29.96,North,355,9.2,9.2,78,0.00,OVC,OVC,0.00,WeatherDisplay:10.37,2013-03-16 11:12:00,
2013-03-16 06:17:00,35.1,28.6,29.97,North,5,13.8,13.8,77,0.00,OVC,OVC,0.00,WeatherDisplay:10.37,2013-03-16 11:17:00,
2013-03-16 06:23:00,35.1,28.6,29.97,WNW,296,10.4,10.4,77,0.00,OVC,OVC,0.00,WeatherDisplay:10.37,2013-03-16 11:23:00,
2013-03-16 06:28:00,35.1,28.3,29.98,North,5,7.0,7.0,76,0.00,OVC,OVC,0.00,WeatherDisplay:10.37,2013-03-16 11:28:00,
2013-03-16 06:33:00,35.1,28.3,29.98,NNE,17,5.8,5.8,76,0.00,OVC,OVC,0.00,WeatherDisplay:10.37,2013-03-16 11:33:00,
2013-03-16 06:38:00,35.1,28.0,29.99,WSW,255,4.0,4.0,75,0.00,OVC,OVC,0.00,WeatherDisplay:10.37,2013-03-16 11:38:00,
2013-03-16 06:43:00,35.2,28.1,30.00,NW,317,10.4,10.4,75,0.00,OVC,OVC,0.00,WeatherDisplay:10.37,2013-03-16 11:43:00,
2013-03-16 06:49:00,35.2,28.1,30.00,West,277,3.5,3.5,75,0.00,OVC,OVC,0.00,WeatherDisplay:10.37,2013-03-16 11:49:00,
2013-03-16 06:54:00,35.2,28.1,30.01,NNW,334,6.9,6.9,75,0.00,OVC,OVC,0.00,WeatherDisplay:10.37,2013-03-16 11:54:00,
2013-03-16 06:59:00,35.1,28.0,30.02,WNW,292,3.5,3.5,75,0.00,CLR,CLR,0.00,WeatherDisplay:10.37,2013-03-16 11:59:00,
2013-03-16 07:04:00,35.1,28.0,30.02,NE,51,4.0,4.0,75,0.00,CLR,CLR,0.00,WeatherDisplay:10.37,2013-03-16 12:04:00,
2013-03-16 07:10:00,35.0,27.2,30.02,NNE,25,12.7,12.7,73,0.00,CLR,CLR,0.00,WeatherDisplay:10.37,2013-03-16 12:10:00,
2013-03-16 07:15:00,34.9,27.1,30.02,NNW,336,15.0,15.0,73,0.00,CLR,CLR,0.00,WeatherDisplay:10.37,2013-03-16 12:15:00,
2013-03-16 07:20:00,34.8,27.0,30.02,NNW,342,9.2,9.2,73,0.00,CLR,CLR,0.00,WeatherDisplay:10.37,2013-03-16 12:20:00,
2013-03-16 07:25:00,34.7,26.9,30.02,NNE,22,6.9,6.9,73,0.00,CLR,CLR,0.00,WeatherDisplay:10.37,2013-03-16 12:25:00,
2013-03-16 07:31:00,34.5,26.7,30.03,NNW,337,11.5,11.5,73,0.00,CLR,CLR,0.00,WeatherDisplay:10.37,2013-03-16 12:31:00,
2013-03-16 07:36:00,34.4,26.6,30.03,NW,309,4.6,4.6,73,0.00,CLR,CLR,0.00,WeatherDisplay:10.37,2013-03-16 12:36:00,
2013-03-16 07:42:00,34.4,26.6,30.03,North,5,5.8,5.8,73,0.00,CLR,CLR,0.00,WeatherDisplay:10.37,2013-03-16 12:42:00,
2013-03-16 07:47:00,34.4,26.6,30.03,NNE,30,6.9,6.9,73,0.00,CLR,CLR,0.00,WeatherDisplay:10.37,2013-03-16 12:47:00,
2013-03-16 07:52:00,34.4,26.6,30.04,NW,319,4.6,4.6,73,0.00,CLR,CLR,0.00,WeatherDisplay:10.37,2013-03-16 12:52:00,
2013-03-16 07:57:00,34.4,26.6,30.05,NNW,338,4.6,4.6,73,0.00,CLR,CLR,0.00,WeatherDisplay:10.37,2013-03-16 12:57:00,
2013-03-16 08:02:00,34.4,26.6,30.05,NNW,340,10.4,10.4,73,0.00,CLR,CLR,0.00,WeatherDisplay:10.37,2013-03-16 13:02:00,
2013-03-16 08:07:00,34.4,26.6,30.05,NNE,15,6.9,6.9,73,0.00,CLR,CLR,0.00,WeatherDisplay:10.37,2013-03-16 13:07:00,
2013-03-16 08:13:00,34.4,26.6,30.05,NNE,28,12.7,12.7,73,0.00,CLR,CLR,0.00,WeatherDisplay:10.37,2013-03-16 13:13:00,
2013-03-16 08:18:00,34.4,26.3,30.05,NNW,331,11.5,11.5,72,0.00,CLR,CLR,0.00,WeatherDisplay:10.37,2013-03-16 13:18:00,
2013-03-16 08:23:00,34.4,26.6,30.05,NNE,14,6.9,6.9,73,0.00,CLR,CLR,0.00,WeatherDisplay:10.37,2013-03-16 13:23:00,
2013-03-16 08:28:00,34.3,26.2,30.06,WNW,288,12.7,12.7,72,0.00,CLR,CLR,0.00,WeatherDisplay:10.37,2013-03-16 13:28:00,
2013-03-16 08:33:00,34.1,26.0,30.06,NE,39,10.4,10.4,72,0.00,CLR,CLR,0.00,WeatherDisplay:10.37,2013-03-16 13:33:00,
2013-03-16 08:38:00,33.9,25.5,30.06,North,360,16.1,16.1,71,0.00,CLR,CLR,0.00,WeatherDisplay:10.37,2013-03-16 13:38:00,
2013-03-16 08:44:00,33.7,25.0,30.06,NNE,22,11.5,11.5,70,0.00,CLR,CLR,0.00,WeatherDisplay:10.37,2013-03-16 13:44:00,
2013-03-16 08:49:00,33.6,24.2,30.06,WNW,303,13.8,13.8,68,0.00,CLR,CLR,0.00,WeatherDisplay:10.37,2013-03-16 13:49:00,
2013-03-16 08:54:00,33.6,24.5,30.07,North,11,11.5,11.5,69,0.00,CLR,CLR,0.00,WeatherDisplay:10.37,2013-03-16 13:54:00,
2013-03-16 08:59:00,33.7,24.3,30.07,NE,40,9.2,9.2,68,0.00,CLR,CLR,0.00,WeatherDisplay:10.37,2013-03-16 13:59:00,
2013-03-16 09:04:00,33.4,24.3,30.08,NNE,16,9.2,9.2,69,0.00,CLR,CLR,0.00,WeatherDisplay:10.37,2013-03-16 14:04:00,
2013-03-16 09:10:00,33.3,24.2,30.08,NNE,30,10.4,10.4,69,0.00,CLR,CLR,0.00,WeatherDisplay:10.37,2013-03-16 14:10:00,
2013-03-16 09:15:00,33.2,23.8,30.08,NNW,344,6.9,6.9,68,0.00,CLR,CLR,0.00,WeatherDisplay:10.37,2013-03-16 14:15:00,
2013-03-16 09:20:00,33.1,23.7,30.09,North,360,12.7,12.7,68,0.00,CLR,CLR,0.00,WeatherDisplay:10.37,2013-03-16 14:20:00,
2013-03-16 09:25:00,33.0,23.6,30.09,NNE,15,11.5,11.5,68,0.00,CLR,CLR,0.00,WeatherDisplay:10.37,2013-03-16 14:25:00,
2013-03-16 09:31:00,32.9,23.5,30.09,NNE,31,16.1,16.1,68,0.00,CLR,CLR,0.00,WeatherDisplay:10.37,2013-03-16 14:31:00,
2013-03-16 09:36:00,32.8,23.4,30.09,NNE,15,11.5,11.5,68,0.00,CLR,CLR,0.00,WeatherDisplay:10.37,2013-03-16 14:36:00,
2013-03-16 09:41:00,32.5,23.1,30.09,NNE,21,10.4,10.4,68,0.00,CLR,CLR,0.00,WeatherDisplay:10.37,2013-03-16 14:41:00,
2013-03-16 09:46:00,32.6,23.2,30.09,North,10,19.6,19.6,68,0.00,CLR,CLR,0.00,WeatherDisplay:10.37,2013-03-16 14:46:00,
2013-03-16 09:52:00,32.5,23.1,30.10,North,5,11.5,11.5,68,0.00,CLR,CLR,0.00,WeatherDisplay:10.37,2013-03-16 14:52:00,
2013-03-16 09:57:00,32.4,22.7,30.10,North,355,15.0,15.0,67,0.00,CLR,CLR,0.00,WeatherDisplay:10.37,2013-03-16 14:57:00,
2013-03-16 10:02:00,32.3,22.9,30.11,North,355,6.0,6.0,68,0.00,CLR,CLR,0.00,WeatherDisplay:10.37,2013-03-16 15:02:00,
2013-03-16 10:07:00,32.3,22.9,30.11,NNW,342,6.9,6.9,68,0.00,CLR,CLR,0.00,WeatherDisplay:10.37,2013-03-16 15:07:00,
2013-03-16 10:13:00,32.0,23.0,30.11,NW,304,15.0,15.0,69,0.00,CLR,CLR,0.00,WeatherDisplay:10.37,2013-03-16 15:13:00,
2013-03-16 10:18:00,31.8,22.8,30.11,NW,324,13.8,13.8,69,0.00,CLR,CLR,0.00,WeatherDisplay:10.37,2013-03-16 15:18:00,
2013-03-16 10:23:00,31.6,22.2,30.12,NW,323,18.4,18.4,68,0.00,CLR,CLR,0.00,WeatherDisplay:10.37,2013-03-16 15:23:00,
2013-03-16 10:28:00,31.5,22.1,30.12,NNE,17,15.0,15.0,68,0.00,CLR,CLR,0.00,WeatherDisplay:10.37,2013-03-16 15:28:00,
2013-03-16 10:33:00,31.6,22.2,30.12,NNW,344,11.5,11.5,68,0.00,CLR,CLR,0.00,WeatherDisplay:10.37,2013-03-16 15:33:00,
2013-03-16 10:38:00,31.4,22.1,30.12,NNE,28,15.0,15.0,68,0.00,CLR,CLR,0.00,WeatherDisplay:10.37,2013-03-16 15:38:00,
2013-03-16 10:44:00,31.4,22.1,30.12,North,350,15.0,15.0,68,0.00,CLR,CLR,0.00,WeatherDisplay:10.37,2013-03-16 15:44:00,
2013-03-16 10:49:00,31.4,22.1,30.13,North,5,10.4,10.4,68,0.00,CLR,CLR,0.00,WeatherDisplay:10.37,2013-03-16 15:49:00,
2013-03-16 10:54:00,31.5,22.1,30.13,NNE,19,11.5,11.5,68,0.00,CLR,CLR,0.00,WeatherDisplay:10.37,2013-03-16 15:54:00,
2013-03-16 11:00:00,31.7,22.0,30.13,NE,53,15.0,15.0,67,0.00,CLR,CLR,0.00,WeatherDisplay:10.37,2013-03-16 16:00:00,
2013-03-16 11:22:00,31.1,21.1,30.14,ENE,77,5.0,5.0,66,0.00,CLR,CLR,0.00,WeatherDisplay:10.37,2013-03-16 16:22:00,
2013-03-16 11:27:00,31.4,21.3,30.14,North,5,11.5,11.5,66,0.00,CLR,CLR,0.00,WeatherDisplay:10.37,2013-03-16 16:27:00,
2013-03-16 11:32:00,31.6,21.5,30.13,NNE,14,13.8,13.8,66,0.00,CLR,CLR,0.00,WeatherDisplay:10.37,2013-03-16 16:32:00,
2013-03-16 11:38:00,31.9,21.5,30.13,NNE,29,12.7,12.7,65,0.00,CLR,CLR,0.00,WeatherDisplay:10.37,2013-03-16 16:38:00,
2013-03-16 11:43:00,31.9,21.5,30.13,NNW,342,10.4,10.4,65,0.00,CLR,CLR,0.00,WeatherDisplay:10.37,2013-03-16 16:43:00,
2013-03-16 11:48:00,31.9,21.5,30.13,NW,314,11.5,11.5,65,0.00,CLR,CLR,0.00,WeatherDisplay:10.37,2013-03-16 16:48:00,
2013-03-16 11:53:00,31.7,21.3,30.13,NE,39,11.5,11.5,65,0.00,CLR,CLR,0.00,WeatherDisplay:10.37,2013-03-16 16:53:00,
2013-03-16 11:59:00,31.7,20.9,30.13,North,355,6.9,6.9,64,0.00,CLR,CLR,0.00,WeatherDisplay:10.37,2013-03-16 16:59:00,
2013-03-16 12:04:00,31.8,19.9,30.13,NNW,348,15.0,15.0,61,0.00,CLR,CLR,0.00,WeatherDisplay:10.37,2013-03-16 17:04:00,
2013-03-16 12:09:00,32.5,20.1,30.13,ENE,65,17.3,17.3,60,0.00,CLR,CLR,0.00,WeatherDisplay:10.37,2013-03-16 17:09:00,
2013-03-16 12:14:00,33.3,20.9,30.14,NNE,15,11.5,11.5,60,0.00,CLR,CLR,0.00,WeatherDisplay:10.37,2013-03-16 17:14:00,
2013-03-16 12:19:00,33.9,21.1,30.14,North,9,12.7,12.7,59,0.00,CLR,CLR,0.00,WeatherDisplay:10.37,2013-03-16 17:19:00,
2013-03-16 12:25:00,34.0,20.8,30.14,North,355,13.8,13.8,58,0.00,CLR,CLR,0.00,WeatherDisplay:10.37,2013-03-16 17:25:00,
2013-03-16 12:30:00,33.6,21.2,30.14,ENE,57,9.2,9.2,60,0.00,CLR,CLR,0.00,WeatherDisplay:10.37,2013-03-16 17:30:00,
2013-03-16 12:35:00,33.4,21.0,30.14,NW,323,16.1,16.1,60,0.00,CLR,CLR,0.00,WeatherDisplay:10.37,2013-03-16 17:35:00,
2013-03-16 12:40:00,33.2,21.2,30.15,NNE,32,11.0,11.0,61,0.00,CLR,CLR,0.00,WeatherDisplay:10.37,2013-03-16 17:40:00,
2013-03-16 12:45:00,32.9,20.1,30.14,NE,48,11.5,11.5,59,0.00,CLR,CLR,0.00,WeatherDisplay:10.37,2013-03-16 17:45:00,
2013-03-16 12:51:00,33.3,20.1,30.14,NE,38,15.0,15.0,58,0.00,CLR,CLR,0.00,WeatherDisplay:10.37,2013-03-16 17:51:00,
2013-03-16 12:57:00,33.6,19.1,30.15,NNE,28,19.6,19.6,55,0.00,CLR,CLR,0.00,WeatherDisplay:10.37,2013-03-16 17:57:00,
2013-03-16 13:02:00,33.7,19.2,30.15,NNE,13,10.4,10.4,55,0.00,CLR,CLR,0.00,WeatherDisplay:10.37,2013-03-16 18:02:00,
2013-03-16 13:07:00,34.4,20.3,30.15,NNE,13,12.7,12.7,56,0.00,CLR,CLR,0.00,WeatherDisplay:10.37,2013-03-16 18:07:00,
2013-03-16 13:12:00,35.1,20.5,30.15,NNE,30,11.5,11.5,55,0.00,CLR,CLR,0.00,WeatherDisplay:10.37,2013-03-16 18:12:00,
2013-03-16 13:17:00,35.1,21.0,30.16,NNW,347,6.9,6.9,56,0.00,CLR,CLR,0.00,WeatherDisplay:10.37,2013-03-16 18:17:00,
2013-03-16 13:22:00,34.9,20.8,30.16,NNW,346,11.5,11.5,56,0.00,CLR,CLR,0.00,WeatherDisplay:10.37,2013-03-16 18:22:00,
2013-03-16 13:28:00,34.3,21.0,30.16,NW,323,6.9,6.9,58,0.00,CLR,CLR,0.00,WeatherDisplay:10.37,2013-03-16 18:28:00,
2013-03-16 13:33:00,33.7,20.9,30.16,NNE,15,12.7,12.7,59,0.00,CLR,CLR,0.00,WeatherDisplay:10.37,2013-03-16 18:33:00,
2013-03-16 13:38:00,33.7,20.5,30.15,NW,325,11.5,11.5,58,0.00,CLR,CLR,0.00,WeatherDisplay:10.37,2013-03-16 18:38:00,
2013-03-16 13:43:00,33.9,21.1,30.15,NNW,341,11.5,11.5,59,0.00,CLR,CLR,0.00,WeatherDisplay:10.37,2013-03-16 18:43:00,
2013-03-16 13:49:00,34.4,20.7,30.15,North,5,18.4,18.4,57,0.00,CLR,CLR,0.00,WeatherDisplay:10.37,2013-03-16 18:49:00,
2013-03-16 13:54:00,34.4,20.7,30.15,NNE,15,15.0,15.0,57,0.00,CLR,CLR,0.00,WeatherDisplay:10.37,2013-03-16 18:54:00,
2013-03-16 13:59:00,34.6,20.5,30.14,North,355,6.9,6.9,56,0.00,OVC,OVC,0.00,WeatherDisplay:10.37,2013-03-16 18:59:00,
2013-03-16 14:04:00,35.1,21.0,30.15,ENE,78,9.2,9.2,56,0.00,OVC,OVC,0.00,WeatherDisplay:10.37,2013-03-16 19:04:00,
2013-03-16 14:09:00,35.2,20.6,30.15,ENE,67,12.7,12.7,55,0.00,OVC,OVC,0.00,WeatherDisplay:10.37,2013-03-16 19:09:00,
2013-03-16 14:14:00,34.9,19.5,30.15,NNE,19,6.9,8.3,53,0.00,OVC,OVC,0.00,WeatherDisplay:10.37,2013-03-16 19:14:00,
2013-03-16 14:19:00,34.7,20.6,30.15,NNE,32,11.0,11.0,56,0.00,OVC,OVC,0.00,WeatherDisplay:10.37,2013-03-16 19:19:00,
2013-03-16 14:25:00,35.4,20.8,30.15,North,360,5.8,5.8,55,0.00,OVC,OVC,0.00,WeatherDisplay:10.37,2013-03-16 19:25:00,
2013-03-16 14:30:00,35.8,21.2,30.14,ENE,76,11.5,11.5,55,0.00,OVC,OVC,0.00,WeatherDisplay:10.37,2013-03-16 19:30:00,
2013-03-16 14:35:00,35.3,20.7,30.15,NE,45,11.5,11.5,55,0.00,OVC,OVC,0.00,WeatherDisplay:10.37,2013-03-16 19:35:00,
2013-03-16 14:40:00,34.8,19.8,30.14,NE,47,12.7,12.7,54,0.00,OVC,OVC,0.00,WeatherDisplay:10.37,2013-03-16 19:40:00,
2013-03-16 14:45:00,34.7,20.6,30.14,NNW,342,11.5,11.5,56,0.00,OVC,OVC,0.00,WeatherDisplay:10.37,2013-03-16 19:45:00,
2013-03-16 14:51:00,34.9,20.4,30.14,NW,316,11.5,11.5,55,0.00,OVC,OVC,0.00,WeatherDisplay:10.37,2013-03-16 19:51:00,
2013-03-16 14:57:00,34.8,21.1,30.14,NE,36,8.1,8.1,57,0.00,OVC,OVC,0.00,WeatherDisplay:10.37,2013-03-16 19:57:00,
2013-03-16 15:02:00,34.9,20.8,30.14,NE,42,11.5,11.5,56,0.00,OVC,OVC,0.00,WeatherDisplay:10.37,2013-03-16 20:02:00,
2013-03-16 15:07:00,35.0,20.9,30.13,NNW,345,4.6,4.6,56,0.00,OVC,OVC,0.00,WeatherDisplay:10.37,2013-03-16 20:07:00,
2013-03-16 15:12:00,35.2,20.6,30.13,NW,315,11.5,11.5,55,0.00,OVC,OVC,0.00,WeatherDisplay:10.37,2013-03-16 20:12:00,
2013-03-16 15:17:00,34.9,20.4,30.13,ENE,68,5.8,5.8,55,0.00,OVC,OVC,0.00,WeatherDisplay:10.37,2013-03-16 20:17:00,
2013-03-16 15:23:00,34.8,20.3,30.13,NE,34,13.8,13.8,55,0.00,OVC,OVC,0.00,WeatherDisplay:10.37,2013-03-16 20:23:00,
2013-03-16 15:28:00,34.4,20.3,30.13,ENE,69,5.8,5.8,56,0.00,OVC,OVC,0.00,WeatherDisplay:10.37,2013-03-16 20:28:00,
2013-03-16 15:33:00,34.2,20.5,30.13,NNE,27,11.5,11.5,57,0.00,OVC,OVC,0.00,WeatherDisplay:10.37,2013-03-16 20:33:00,
2013-03-16 15:38:00,34.1,20.4,30.13,NNE,19,11.5,11.5,57,0.00,OVC,OVC,0.00,WeatherDisplay:10.37,2013-03-16 20:38:00,
2013-03-16 15:44:00,34.4,20.3,30.13,ENE,60,10.4,10.4,56,0.00,OVC,OVC,0.00,WeatherDisplay:10.37,2013-03-16 20:44:00,
2013-03-16 15:49:00,34.7,20.6,30.13,NNE,28,11.5,11.5,56,0.00,OVC,OVC,0.00,WeatherDisplay:10.37,2013-03-16 20:49:00,
2013-03-16 15:54:00,34.4,19.9,30.14,NNW,336,5.0,5.0,55,0.00,OVC,OVC,0.00,WeatherDisplay:10.37,2013-03-16 20:54:00,
2013-03-16 15:59:00,34.4,20.3,30.14,North,360,9.2,9.2,56,0.00,OVC,OVC,0.00,WeatherDisplay:10.37,2013-03-16 20:59:00,
2013-03-16 16:04:00,34.4,20.3,30.14,North,5,11.5,11.5,56,0.00,OVC,OVC,0.00,WeatherDisplay:10.37,2013-03-16 21:04:00,
2013-03-16 16:09:00,34.4,20.3,30.13,North,5,6.9,6.9,56,0.00,OVC,OVC,0.00,WeatherDisplay:10.37,2013-03-16 21:09:00,
2013-03-16 16:15:00,34.4,20.3,30.13,NNE,31,10.4,10.4,56,0.00,OVC,OVC,0.00,WeatherDisplay:10.37,2013-03-16 21:15:00,
2013-03-16 16:20:00,34.2,20.5,30.13,NNW,336,3.5,3.5,57,0.00,OVC,OVC,0.00,WeatherDisplay:10.37,2013-03-16 21:20:00,
2013-03-16 16:25:00,34.4,20.7,30.13,NNE,22,6.0,6.0,57,0.00,OVC,OVC,0.00,WeatherDisplay:10.37,2013-03-16 21:25:00,
2013-03-16 16:30:00,34.4,20.3,30.14,NE,48,11.5,11.5,56,0.00,OVC,OVC,0.00,WeatherDisplay:10.37,2013-03-16 21:30:00,
2013-03-16 16:36:00,33.7,20.1,30.14,NW,318,9.2,9.2,57,0.00,OVC,OVC,0.00,WeatherDisplay:10.37,2013-03-16 21:36:00,
2013-03-16 16:41:00,33.3,20.1,30.14,North,355,13.0,13.0,58,0.00,OVC,OVC,0.00,WeatherDisplay:10.37,2013-03-16 21:41:00,
2013-03-16 16:47:00,33.1,19.9,30.14,NNW,338,11.5,11.5,58,0.00,OVC,OVC,0.00,WeatherDisplay:10.37,2013-03-16 21:47:00,
2013-03-16 16:52:00,33.0,20.2,30.14,NNE,26,4.6,4.6,59,0.00,OVC,OVC,0.00,WeatherDisplay:10.37,2013-03-16 21:52:00,
2013-03-16 16:57:00,32.6,19.8,30.14,NW,326,5.8,5.8,59,0.00,OVC,OVC,0.00,WeatherDisplay:10.37,2013-03-16 21:57:00,
2013-03-16 17:02:00,32.6,19.8,30.14,NE,36,9.2,9.2,59,0.00,OVC,OVC,0.00,WeatherDisplay:10.37,2013-03-16 22:02:00,
2013-03-16 17:08:00,32.8,20.4,30.14,North,351,6.9,6.9,60,0.00,OVC,OVC,0.00,WeatherDisplay:10.37,2013-03-16 22:08:00,
2013-03-16 17:13:00,32.8,20.0,30.14,North,11,6.0,6.0,59,0.00,OVC,OVC,0.00,WeatherDisplay:10.37,2013-03-16 22:13:00,
2013-03-16 17:18:00,32.3,20.0,30.15,NNW,329,3.5,3.5,60,0.00,OVC,OVC,0.00,WeatherDisplay:10.37,2013-03-16 22:18:00,
2013-03-16 17:24:00,32.0,19.7,30.15,NNE,15,9.2,9.2,60,0.00,OVC,OVC,0.00,WeatherDisplay:10.37,2013-03-16 22:24:00,
2013-03-16 17:29:00,32.0,19.7,30.15,NNW,346,3.5,3.5,60,0.00,OVC,OVC,0.00,WeatherDisplay:10.37,2013-03-16 22:29:00,
2013-03-16 17:34:00,31.6,19.3,30.15,NNW,345,11.5,11.5,60,0.00,OVC,OVC,0.00,WeatherDisplay:10.37,2013-03-16 22:34:00,
2013-03-16 17:39:00,31.6,19.7,30.15,NNW,343,3.5,3.5,61,0.00,OVC,OVC,0.00,WeatherDisplay:10.37,2013-03-16 22:39:00,
2013-03-16 17:44:00,31.5,19.6,30.16,NNE,26,10.4,10.4,61,0.00,OVC,OVC,0.00,WeatherDisplay:10.37,2013-03-16 22:44:00,
2013-03-16 17:49:00,31.4,19.5,30.16,NE,38,9.2,9.2,61,0.00,OVC,OVC,0.00,WeatherDisplay:10.37,2013-03-16 22:49:00,
2013-03-16 17:54:00,31.4,19.5,30.16,NNW,347,8.1,8.1,61,0.00,OVC,OVC,0.00,WeatherDisplay:10.37,2013-03-16 22:54:00,
2013-03-16 17:59:00,31.4,19.9,30.16,North,5,1.2,1.2,62,0.00,OVC,OVC,0.00,WeatherDisplay:10.37,2013-03-16 22:59:00,
2013-03-16 18:05:00,31.3,19.8,30.16,NW,317,3.5,3.5,62,0.00,OVC,OVC,0.00,WeatherDisplay:10.37,2013-03-16 23:05:00,
2013-03-16 18:10:00,31.2,19.7,30.16,NNE,20,3.5,3.5,62,0.00,OVC,OVC,0.00,WeatherDisplay:10.37,2013-03-16 23:10:00,
2013-03-16 18:15:00,31.1,19.6,30.17,NW,317,9.2,9.2,62,0.00,OVC,OVC,0.00,WeatherDisplay:10.37,2013-03-16 23:15:00,
2013-03-16 18:20:00,30.9,19.8,30.17,NE,43,11.5,11.5,63,0.00,OVC,OVC,0.00,WeatherDisplay:10.37,2013-03-16 23:20:00,
2013-03-16 18:26:00,30.8,19.7,30.17,NW,309,4.6,4.6,63,0.00,OVC,OVC,0.00,WeatherDisplay:10.37,2013-03-16 23:26:00,
2013-03-16 18:31:00,30.6,19.5,30.17,NNW,348,4.0,4.0,63,0.00,OVC,OVC,0.00,WeatherDisplay:10.37,2013-03-16 23:31:00,
2013-03-16 18:36:00,30.4,19.3,30.17,North,349,4.6,4.6,63,0.00,OVC,OVC,0.00,WeatherDisplay:10.37,2013-03-16 23:36:00,
2013-03-16 18:41:00,30.2,19.5,30.18,NNE,12,5.8,5.8,64,0.00,OVC,OVC,0.00,WeatherDisplay:10.37,2013-03-16 23:41:00,
2013-03-16 18:46:00,30.1,19.0,30.18,NW,304,3.5,3.5,63,0.00,OVC,OVC,0.00,WeatherDisplay:10.37,2013-03-16 23:46:00,
2013-03-16 18:51:00,29.9,19.2,30.18,NNE,15,3.5,3.5,64,0.00,OVC,OVC,0.00,WeatherDisplay:10.37,2013-03-16 23:51:00,
2013-03-16 18:56:00,29.9,19.2,30.18,North,360,9.2,9.2,64,0.00,CLR,CLR,0.00,WeatherDisplay:10.37,2013-03-16 23:56:00,
2013-03-16 19:02:00,29.8,19.1,30.18,WNW,298,5.8,5.8,64,0.00,CLR,CLR,0.00,WeatherDisplay:10.37,2013-03-17 00:02:00,
2013-03-16 19:07:00,29.7,19.0,30.18,NNW,344,5.8,5.8,64,0.00,CLR,CLR,0.00,WeatherDisplay:10.37,2013-03-17 00:07:00,
2013-03-16 19:12:00,29.6,18.9,30.18,NNE,15,11.5,11.5,64,0.00,CLR,CLR,0.00,WeatherDisplay:10.37,2013-03-17 00:12:00,
2013-03-16 19:18:00,29.5,18.8,30.18,NNW,329,3.5,3.5,64,0.00,CLR,CLR,0.00,WeatherDisplay:10.37,2013-03-17 00:18:00,
2013-03-16 19:23:00,29.4,19.1,30.18,NW,324,2.3,2.3,65,0.00,CLR,CLR,0.00,WeatherDisplay:10.37,2013-03-17 00:23:00,
2013-03-16 19:28:00,29.4,19.1,30.19,NW,319,2.3,2.3,65,0.00,CLR,CLR,0.00,WeatherDisplay:10.37,2013-03-17 00:28:00,
2013-03-16 19:33:00,29.3,19.0,30.19,NW,307,4.6,4.6,65,0.00,CLR,CLR,0.00,WeatherDisplay:10.37,2013-03-17 00:33:00,
2013-03-16 19:38:00,29.3,19.0,30.19,NNE,22,3.5,3.5,65,0.00,CLR,CLR,0.00,WeatherDisplay:10.37,2013-03-17 00:38:00,
2013-03-16 19:44:00,29.2,18.9,30.18,NNW,348,3.5,3.5,65,0.00,CLR,CLR,0.00,WeatherDisplay:10.37,2013-03-17 00:44:00,
2013-03-16 19:49:00,29.1,18.8,30.18,NW,325,4.6,4.6,65,0.00,CLR,CLR,0.00,WeatherDisplay:10.37,2013-03-17 00:49:00,
2013-03-16 19:54:00,29.1,18.8,30.18,North,360,3.5,3.5,65,0.00,CLR,CLR,0.00,WeatherDisplay:10.37,2013-03-17 00:54:00,
2013-03-16 19:59:00,29.1,19.2,30.18,NNE,22,3.5,3.5,66,0.00,CLR,CLR,0.00,WeatherDisplay:10.37,2013-03-17 00:59:00,
2013-03-16 20:04:00,29.1,19.2,30.19,North,355,3.5,3.5,66,0.00,CLR,CLR,0.00,WeatherDisplay:10.37,2013-03-17 01:04:00,
2013-03-16 20:10:00,29.0,18.7,30.19,North,5,9.2,9.2,65,0.00,CLR,CLR,0.00,WeatherDisplay:10.37,2013-03-17 01:10:00,
2013-03-16 20:15:00,28.9,18.6,30.19,NE,40,6.0,6.0,65,0.00,CLR,CLR,0.00,WeatherDisplay:10.37,2013-03-17 01:15:00,
2013-03-16 20:20:00,28.9,18.6,30.19,NNW,327,4.6,4.6,65,0.00,CLR,CLR,0.00,WeatherDisplay:10.37,2013-03-17 01:20:00,
2013-03-16 20:26:00,28.8,18.5,30.19,NNE,22,6.0,6.0,65,0.00,CLR,CLR,0.00,WeatherDisplay:10.37,2013-03-17 01:26:00,
2013-03-16 20:31:00,28.8,18.5,30.19,NNE,15,6.0,6.0,65,0.00,CLR,CLR,0.00,WeatherDisplay:10.37,2013-03-17 01:31:00,
2013-03-16 20:37:00,28.8,18.9,30.20,NE,53,0.0,0.0,66,0.00,CLR,CLR,0.00,WeatherDisplay:10.37,2013-03-17 01:37:00,
2013-03-16 20:42:00,28.8,18.5,30.20,NW,324,8.1,8.1,65,0.00,CLR,CLR,0.00,WeatherDisplay:10.37,2013-03-17 01:42:00,
2013-03-16 20:47:00,28.7,18.8,30.20,NNE,23,5.8,5.8,66,0.00,CLR,CLR,0.00,WeatherDisplay:10.37,2013-03-17 01:47:00,
2013-03-16 20:52:00,28.7,18.8,30.21,North,355,5.8,5.8,66,0.00,CLR,CLR,0.00,WeatherDisplay:10.37,2013-03-17 01:52:00,
2013-03-16 20:57:00,28.6,18.7,30.21,NE,36,8.1,8.1,66,0.00,CLR,CLR,0.00,WeatherDisplay:10.37,2013-03-17 01:57:00,
2013-03-16 21:02:00,28.7,18.8,30.22,NNE,22,2.3,0.0,66,0.00,CLR,CLR,0.00,WeatherDisplay:10.37,2013-03-17 02:02:00,
2013-03-16 21:08:00,28.7,18.8,30.22,NNE,15,5.8,5.8,66,0.00,CLR,CLR,0.00,WeatherDisplay:10.37,2013-03-17 02:08:00,
2013-03-16 21:13:00,28.7,18.8,30.22,NNE,15,4.6,4.6,66,0.00,CLR,CLR,0.00,WeatherDisplay:10.37,2013-03-17 02:13:00,
2013-03-16 21:18:00,28.7,18.8,30.22,NNW,348,4.6,4.6,66,0.00,CLR,CLR,0.00,WeatherDisplay:10.37,2013-03-17 02:18:00,
2013-03-16 21:23:00,28.6,18.7,30.22,NNW,327,3.5,3.5,66,0.00,CLR,CLR,0.00,WeatherDisplay:10.37,2013-03-17 02:23:00,
2013-03-16 21:28:00,28.5,18.6,30.22,WNW,297,3.0,3.0,66,0.00,CLR,CLR,0.00,WeatherDisplay:10.37,2013-03-17 02:28:00,
2013-03-16 21:33:00,28.5,18.6,30.23,NW,325,0.0,0.0,66,0.00,CLR,CLR,0.00,WeatherDisplay:10.37,2013-03-17 02:33:00,
2013-03-16 21:38:00,28.5,18.6,30.23,NNE,27,6.9,6.9,66,0.00,CLR,CLR,0.00,WeatherDisplay:10.37,2013-03-17 02:38:00,
2013-03-16 21:44:00,28.5,18.6,30.23,WNW,292,3.5,3.5,66,0.00,CLR,CLR,0.00,WeatherDisplay:10.37,2013-03-17 02:44:00,
2013-03-16 21:49:00,28.5,18.6,30.23,North,355,3.5,3.5,66,0.00,CLR,CLR,0.00,WeatherDisplay:10.37,2013-03-17 02:49:00,
2013-03-16 21:54:00,28.4,18.5,30.24,NNE,22,4.6,4.6,66,0.00,CLR,CLR,0.00,WeatherDisplay:10.37,2013-03-17 02:54:00,
2013-03-16 21:59:00,28.3,18.0,30.24,NNW,339,4.6,4.6,65,0.00,CLR,CLR,0.00,WeatherDisplay:10.37,2013-03-17 02:59:00,
2013-03-16 22:04:00,28.3,18.4,30.24,NNE,28,3.5,3.5,66,0.00,CLR,CLR,0.00,WeatherDisplay:10.37,2013-03-17 03:04:00,
2013-03-16 22:10:00,28.3,18.0,30.25,NNE,15,3.5,3.5,65,0.00,CLR,CLR,0.00,WeatherDisplay:10.37,2013-03-17 03:10:00,
2013-03-16 22:15:00,28.3,18.0,30.25,North,355,2.3,2.3,65,0.00,CLR,CLR,0.00,WeatherDisplay:10.37,2013-03-17 03:15:00,
2013-03-16 22:20:00,28.3,18.0,30.25,North,360,3.5,3.5,65,0.00,CLR,CLR,0.00,WeatherDisplay:10.37,2013-03-17 03:20:00,
2013-03-16 22:26:00,28.3,18.4,30.26,NW,323,3.5,3.5,66,0.00,CLR,CLR,0.00,WeatherDisplay:10.37,2013-03-17 03:26:00,
2013-03-16 22:31:00,28.3,18.4,30.25,North,5,6.0,6.0,66,0.00,CLR,CLR,0.00,WeatherDisplay:10.37,2013-03-17 03:31:00,
2013-03-16 22:37:00,28.3,18.4,30.26,North,360,4.6,4.6,66,0.00,CLR,CLR,0.00,WeatherDisplay:10.37,2013-03-17 03:37:00,
2013-03-16 22:42:00,28.3,18.0,30.26,NNE,13,3.5,3.5,65,0.00,CLR,CLR,0.00,WeatherDisplay:10.37,2013-03-17 03:42:00,
2013-03-16 22:47:00,28.3,18.0,30.26,North,5,3.5,3.5,65,0.00,CLR,CLR,0.00,WeatherDisplay:10.37,2013-03-17 03:47:00,
2013-03-16 22:52:00,28.3,18.0,30.26,NNE,26,11.5,11.5,65,0.00,CLR,CLR,0.00,WeatherDisplay:10.37,2013-03-17 03:52:00,
2013-03-16 22:58:00,28.2,17.9,30.26,NE,46,6.0,6.0,65,0.00,CLR,CLR,0.00,WeatherDisplay:10.37,2013-03-17 03:58:00,
2013-03-16 23:00:00,28.2,17.9,30.26,North,355,11.5,11.5,65,0.00,CLR,CLR,0.00,WeatherDisplay:10.37,2013-03-17 04:00:00,
2013-03-16 23:02:00,28.1,17.8,30.26,North,360,6.9,6.9,65,0.00,CLR,CLR,0.00,WeatherDisplay:10.37,2013-03-17 04:02:00,
2013-03-16 23:03:00,28.1,17.8,30.26,North,355,9.2,9.2,65,0.00,CLR,CLR,0.00,WeatherDisplay:10.37,2013-03-17 04:03:00,
2013-03-16 23:09:00,28.0,17.7,30.26,NE,42,5.0,5.0,65,0.00,CLR,CLR,0.00,WeatherDisplay:10.37,2013-03-17 04:09:00,
2013-03-16 23:14:00,28.0,17.7,30.26,North,5,3.5,3.5,65,0.00,CLR,CLR,0.00,WeatherDisplay:10.37,2013-03-17 04:14:00,
2013-03-16 23:19:00,28.0,17.7,30.26,North,11,4.0,4.0,65,0.00,CLR,CLR,0.00,WeatherDisplay:10.37,2013-03-17 04:19:00,
2013-03-16 23:24:00,27.9,17.6,30.26,NNW,338,4.6,4.6,65,0.00,CLR,CLR,0.00,WeatherDisplay:10.37,2013-03-17 04:24:00,
2013-03-16 23:30:00,27.8,17.6,30.26,NNE,30,4.6,4.6,65,0.00,CLR,CLR,0.00,WeatherDisplay:10.37,2013-03-17 04:30:00,
2013-03-16 23:35:00,27.7,17.5,30.26,NNW,339,4.6,4.6,65,0.00,CLR,CLR,0.00,WeatherDisplay:10.37,2013-03-17 04:35:00,
2013-03-16 23:40:00,27.6,17.4,30.26,NNW,332,6.0,6.0,65,0.00,CLR,CLR,0.00,WeatherDisplay:10.37,2013-03-17 04:40:00,
2013-03-16 23:45:00,27.5,17.3,30.26,NNE,13,6.9,6.9,65,0.00,CLR,CLR,0.00,WeatherDisplay:10.37,2013-03-17 04:45:00,
2013-03-16 23:51:00,27.5,17.3,30.26,North,5,6.9,6.9,65,0.00,CLR,CLR,0.00,WeatherDisplay:10.37,2013-03-17 04:51:00,
2013-03-16 23:56:00,27.4,17.2,30.26,North,355,11.5,11.5,65,0.00,CLR,CLR,0.00,WeatherDisplay:10.37,2013-03-17 04:56:00,